sensor_id;sensor_type;location;lat;lon;timestamp;P1;durP1;ratioP1;P2;durP2;ratioP2
19869;SDS011;10097;50.862;4.696;2022-11-11T00:01:35;15.20;;;7.17;;
19869;SDS011;10097;50.862;4.696;2022-11-11T00:04:01;17.93;;;7.57;;
19869;SDS011;10097;50.862;4.696;2022-11-11T00:06:26;15.63;;;7.50;;
19869;SDS011;10097;50.862;4.696;2022-11-11T00:08:52;13.93;;;7.10;;
19869;SDS011;10097;50.862;4.696;2022-11-11T00:11:17;14.90;;;7.77;;
19869;SDS011;10097;50.862;4.696;2022-11-11T00:13:43;18.03;;;8.63;;
19869;SDS011;10097;50.862;4.696;2022-11-11T00:16:10;14.97;;;7.17;;
19869;SDS011;10097;50.862;4.696;2022-11-11T00:18:37;14.27;;;7.83;;
19869;SDS011;10097;50.862;4.696;2022-11-11T00:21:22;19.73;;;8.53;;
19869;SDS011;10097;50.862;4.696;2022-11-11T00:24:20;14.83;;;7.90;;
19869;SDS011;10097;50.862;4.696;2022-11-11T00:27:09;19.33;;;8.20;;
19869;SDS011;10097;50.862;4.696;2022-11-11T00:29:36;15.77;;;8.20;;
19869;SDS011;10097;50.862;4.696;2022-11-11T00:32:02;19.70;;;8.83;;
19869;SDS011;10097;50.862;4.696;2022-11-11T00:34:47;19.43;;;8.57;;
19869;SDS011;10097;50.862;4.696;2022-11-11T00:37:32;18.50;;;8.50;;
19869;SDS011;10097;50.862;4.696;2022-11-11T00:39:59;19.50;;;8.27;;
19869;SDS011;10097;50.862;4.696;2022-11-11T00:42:24;16.50;;;8.90;;
19869;SDS011;10097;50.862;4.696;2022-11-11T00:44:50;23.37;;;9.23;;
19869;SDS011;10097;50.862;4.696;2022-11-11T00:47:16;21.43;;;8.97;;
19869;SDS011;10097;50.862;4.696;2022-11-11T00:50:00;20.40;;;8.90;;
19869;SDS011;10097;50.862;4.696;2022-11-11T00:52:46;19.67;;;8.90;;
19869;SDS011;10097;50.862;4.696;2022-11-11T00:55:12;18.23;;;8.40;;
19869;SDS011;10097;50.862;4.696;2022-11-11T00:57:38;18.40;;;8.20;;
19869;SDS011;10097;50.862;4.696;2022-11-11T01:00:04;19.90;;;10.27;;
19869;SDS011;10097;50.862;4.696;2022-11-11T01:02:30;22.90;;;9.60;;
19869;SDS011;10097;50.862;4.696;2022-11-11T01:04:56;19.97;;;9.77;;
19869;SDS011;10097;50.862;4.696;2022-11-11T01:07:21;17.93;;;8.70;;
19869;SDS011;10097;50.862;4.696;2022-11-11T01:09:47;17.33;;;8.80;;
19869;SDS011;10097;50.862;4.696;2022-11-11T01:12:13;21.03;;;9.53;;
19869;SDS011;10097;50.862;4.696;2022-11-11T01:14:39;23.27;;;9.37;;
19869;SDS011;10097;50.862;4.696;2022-11-11T01:17:04;18.27;;;9.23;;
19869;SDS011;10097;50.862;4.696;2022-11-11T01:19:30;18.03;;;9.03;;
19869;SDS011;10097;50.862;4.696;2022-11-11T01:21:56;20.37;;;9.93;;
19869;SDS011;10097;50.862;4.696;2022-11-11T01:24:23;22.60;;;9.43;;
19869;SDS011;10097;50.862;4.696;2022-11-11T01:26:49;18.00;;;8.90;;
19869;SDS011;10097;50.862;4.696;2022-11-11T01:29:14;20.27;;;9.07;;
19869;SDS011;10097;50.862;4.696;2022-11-11T01:31:40;17.03;;;8.63;;
19869;SDS011;10097;50.862;4.696;2022-11-11T01:34:06;18.10;;;8.60;;
19869;SDS011;10097;50.862;4.696;2022-11-11T01:36:31;16.27;;;8.53;;
19869;SDS011;10097;50.862;4.696;2022-11-11T01:38:57;16.43;;;8.70;;
19869;SDS011;10097;50.862;4.696;2022-11-11T01:41:26;17.93;;;8.47;;
19869;SDS011;10097;50.862;4.696;2022-11-11T01:43:57;20.07;;;8.77;;
19869;SDS011;10097;50.862;4.696;2022-11-11T01:57:18;18.20;;;9.07;;
19869;SDS011;10097;50.862;4.696;2022-11-11T01:59:53;18.47;;;9.23;;
19869;SDS011;10097;50.862;4.696;2022-11-11T02:02:44;20.07;;;9.17;;
19869;SDS011;10097;50.862;4.696;2022-11-11T02:05:19;20.13;;;9.10;;
19869;SDS011;10097;50.862;4.696;2022-11-11T02:08:06;21.40;;;10.77;;
19869;SDS011;10097;50.862;4.696;2022-11-11T02:11:01;18.23;;;9.57;;
19869;SDS011;10097;50.862;4.696;2022-11-11T02:13:29;20.00;;;9.80;;
19869;SDS011;10097;50.862;4.696;2022-11-11T02:16:14;20.23;;;8.97;;
19869;SDS011;10097;50.862;4.696;2022-11-11T02:18:40;20.20;;;9.73;;
19869;SDS011;10097;50.862;4.696;2022-11-11T02:21:07;19.37;;;10.63;;
19869;SDS011;10097;50.862;4.696;2022-11-11T02:23:50;16.47;;;9.73;;
19869;SDS011;10097;50.862;4.696;2022-11-11T02:26:20;19.83;;;10.10;;
19869;SDS011;10097;50.862;4.696;2022-11-11T02:28:46;17.23;;;9.57;;
19869;SDS011;10097;50.862;4.696;2022-11-11T02:31:13;20.77;;;9.87;;
19869;SDS011;10097;50.862;4.696;2022-11-11T02:33:38;20.50;;;10.40;;
19869;SDS011;10097;50.862;4.696;2022-11-11T02:36:04;19.63;;;9.40;;
19869;SDS011;10097;50.862;4.696;2022-11-11T02:38:31;15.30;;;9.27;;
19869;SDS011;10097;50.862;4.696;2022-11-11T02:40:56;17.17;;;9.33;;
19869;SDS011;10097;50.862;4.696;2022-11-11T02:43:40;17.07;;;9.00;;
19869;SDS011;10097;50.862;4.696;2022-11-11T02:46:06;18.03;;;8.60;;
19869;SDS011;10097;50.862;4.696;2022-11-11T02:48:32;20.47;;;8.90;;
19869;SDS011;10097;50.862;4.696;2022-11-11T02:50:58;16.60;;;9.07;;
19869;SDS011;10097;50.862;4.696;2022-11-11T02:53:24;21.10;;;9.60;;
19869;SDS011;10097;50.862;4.696;2022-11-11T02:55:49;18.67;;;9.33;;
19869;SDS011;10097;50.862;4.696;2022-11-11T02:58:15;19.93;;;9.37;;
19869;SDS011;10097;50.862;4.696;2022-11-11T03:00:41;17.93;;;10.13;;
19869;SDS011;10097;50.862;4.696;2022-11-11T03:03:07;21.53;;;9.00;;
19869;SDS011;10097;50.862;4.696;2022-11-11T03:05:34;20.07;;;9.20;;
19869;SDS011;10097;50.862;4.696;2022-11-11T03:08:00;19.70;;;9.63;;
19869;SDS011;10097;50.862;4.696;2022-11-11T03:10:26;17.40;;;9.20;;
19869;SDS011;10097;50.862;4.696;2022-11-11T03:12:51;17.40;;;9.03;;
19869;SDS011;10097;50.862;4.696;2022-11-11T03:15:17;17.37;;;8.53;;
19869;SDS011;10097;50.862;4.696;2022-11-11T03:17:42;19.17;;;9.40;;
19869;SDS011;10097;50.862;4.696;2022-11-11T03:23:01;17.60;;;9.20;;
19869;SDS011;10097;50.862;4.696;2022-11-11T03:25:28;19.37;;;9.53;;
19869;SDS011;10097;50.862;4.696;2022-11-11T03:28:07;18.37;;;9.47;;
19869;SDS011;10097;50.862;4.696;2022-11-11T03:30:36;20.60;;;9.43;;
19869;SDS011;10097;50.862;4.696;2022-11-11T03:33:03;19.03;;;9.00;;
19869;SDS011;10097;50.862;4.696;2022-11-11T03:35:30;17.93;;;9.07;;
19869;SDS011;10097;50.862;4.696;2022-11-11T03:37:56;19.97;;;9.47;;
19869;SDS011;10097;50.862;4.696;2022-11-11T03:40:47;20.20;;;8.50;;
19869;SDS011;10097;50.862;4.696;2022-11-11T03:43:15;17.27;;;8.70;;
19869;SDS011;10097;50.862;4.696;2022-11-11T03:45:42;15.33;;;8.93;;
19869;SDS011;10097;50.862;4.696;2022-11-11T03:48:09;17.00;;;8.57;;
19869;SDS011;10097;50.862;4.696;2022-11-11T03:50:35;17.37;;;8.60;;
19869;SDS011;10097;50.862;4.696;2022-11-11T03:53:01;17.93;;;8.40;;
19869;SDS011;10097;50.862;4.696;2022-11-11T03:55:27;18.83;;;9.37;;
19869;SDS011;10097;50.862;4.696;2022-11-11T03:57:53;17.10;;;8.60;;
19869;SDS011;10097;50.862;4.696;2022-11-11T04:00:20;18.23;;;9.40;;
19869;SDS011;10097;50.862;4.696;2022-11-11T04:02:47;16.27;;;7.93;;
19869;SDS011;10097;50.862;4.696;2022-11-11T04:05:32;15.43;;;8.27;;
19869;SDS011;10097;50.862;4.696;2022-11-11T04:08:17;19.77;;;9.43;;
19869;SDS011;10097;50.862;4.696;2022-11-11T04:11:04;15.83;;;7.60;;
19869;SDS011;10097;50.862;4.696;2022-11-11T04:13:33;18.83;;;9.07;;
19869;SDS011;10097;50.862;4.696;2022-11-11T04:16:18;16.63;;;8.30;;
19869;SDS011;10097;50.862;4.696;2022-11-11T04:18:44;17.30;;;8.50;;
19869;SDS011;10097;50.862;4.696;2022-11-11T04:21:28;19.37;;;8.90;;
19869;SDS011;10097;50.862;4.696;2022-11-11T04:24:10;19.30;;;9.00;;
19869;SDS011;10097;50.862;4.696;2022-11-11T04:27:01;18.63;;;8.87;;
19869;SDS011;10097;50.862;4.696;2022-11-11T04:29:28;21.33;;;9.00;;
19869;SDS011;10097;50.862;4.696;2022-11-11T04:32:08;18.50;;;9.17;;
19869;SDS011;10097;50.862;4.696;2022-11-11T04:34:55;17.73;;;8.77;;
19869;SDS011;10097;50.862;4.696;2022-11-11T04:37:21;16.27;;;8.13;;
19869;SDS011;10097;50.862;4.696;2022-11-11T04:39:47;16.07;;;8.33;;
19869;SDS011;10097;50.862;4.696;2022-11-11T04:42:32;14.97;;;7.90;;
19869;SDS011;10097;50.862;4.696;2022-11-11T04:44:58;15.83;;;8.23;;
19869;SDS011;10097;50.862;4.696;2022-11-11T04:50:28;18.37;;;8.83;;
19869;SDS011;10097;50.862;4.696;2022-11-11T04:52:58;19.93;;;8.30;;
19869;SDS011;10097;50.862;4.696;2022-11-11T04:55:25;18.50;;;8.53;;
19869;SDS011;10097;50.862;4.696;2022-11-11T04:58:09;14.53;;;7.40;;
19869;SDS011;10097;50.862;4.696;2022-11-11T05:00:35;17.37;;;8.03;;
19869;SDS011;10097;50.862;4.696;2022-11-11T05:03:01;15.23;;;7.93;;
19869;SDS011;10097;50.862;4.696;2022-11-11T05:05:56;20.97;;;8.27;;
19869;SDS011;10097;50.862;4.696;2022-11-11T05:08:42;17.27;;;8.07;;
19869;SDS011;10097;50.862;4.696;2022-11-11T05:11:24;14.10;;;7.70;;
19869;SDS011;10097;50.862;4.696;2022-11-11T05:13:52;18.83;;;8.23;;
19869;SDS011;10097;50.862;4.696;2022-11-11T05:16:39;19.70;;;9.23;;
19869;SDS011;10097;50.862;4.696;2022-11-11T05:19:28;17.43;;;8.70;;
19869;SDS011;10097;50.862;4.696;2022-11-11T05:24:44;17.73;;;7.87;;
19869;SDS011;10097;50.862;4.696;2022-11-11T05:27:27;18.73;;;8.10;;
19869;SDS011;10097;50.862;4.696;2022-11-11T05:29:53;17.97;;;8.67;;
19869;SDS011;10097;50.862;4.696;2022-11-11T05:32:20;20.90;;;8.27;;
19869;SDS011;10097;50.862;4.696;2022-11-11T05:34:47;16.57;;;7.63;;
19869;SDS011;10097;50.862;4.696;2022-11-11T05:37:13;18.03;;;7.87;;
19869;SDS011;10097;50.862;4.696;2022-11-11T05:39:39;17.47;;;8.20;;
19869;SDS011;10097;50.862;4.696;2022-11-11T05:42:05;17.40;;;8.07;;
19869;SDS011;10097;50.862;4.696;2022-11-11T05:44:30;17.13;;;8.37;;
19869;SDS011;10097;50.862;4.696;2022-11-11T05:46:56;21.83;;;8.50;;
19869;SDS011;10097;50.862;4.696;2022-11-11T05:49:22;16.57;;;8.33;;
19869;SDS011;10097;50.862;4.696;2022-11-11T05:51:49;18.17;;;8.97;;
19869;SDS011;10097;50.862;4.696;2022-11-11T05:54:16;17.13;;;8.17;;
19869;SDS011;10097;50.862;4.696;2022-11-11T05:56:42;17.97;;;8.47;;
19869;SDS011;10097;50.862;4.696;2022-11-11T05:59:07;15.47;;;8.03;;
19869;SDS011;10097;50.862;4.696;2022-11-11T06:01:33;15.87;;;8.13;;
19869;SDS011;10097;50.862;4.696;2022-11-11T06:03:59;17.57;;;8.50;;
19869;SDS011;10097;50.862;4.696;2022-11-11T06:06:25;17.47;;;7.63;;
19869;SDS011;10097;50.862;4.696;2022-11-11T06:08:51;16.73;;;8.07;;
19869;SDS011;10097;50.862;4.696;2022-11-11T06:11:17;15.27;;;7.67;;
19869;SDS011;10097;50.862;4.696;2022-11-11T06:13:43;16.57;;;8.20;;
19869;SDS011;10097;50.862;4.696;2022-11-11T06:16:09;16.87;;;8.27;;
19869;SDS011;10097;50.862;4.696;2022-11-11T06:18:35;18.37;;;7.80;;
19869;SDS011;10097;50.862;4.696;2022-11-11T06:21:00;17.57;;;7.67;;
19869;SDS011;10097;50.862;4.696;2022-11-11T06:23:28;19.33;;;8.67;;
19869;SDS011;10097;50.862;4.696;2022-11-11T06:25:54;19.60;;;8.53;;
19869;SDS011;10097;50.862;4.696;2022-11-11T06:31:09;19.93;;;8.00;;
19869;SDS011;10097;50.862;4.696;2022-11-11T06:33:37;16.17;;;7.90;;
19869;SDS011;10097;50.862;4.696;2022-11-11T06:36:03;16.80;;;7.40;;
19869;SDS011;10097;50.862;4.696;2022-11-11T06:38:30;20.20;;;9.27;;
19869;SDS011;10097;50.862;4.696;2022-11-11T06:40:56;19.23;;;8.50;;
19869;SDS011;10097;50.862;4.696;2022-11-11T06:43:22;19.50;;;9.13;;
19869;SDS011;10097;50.862;4.696;2022-11-11T06:45:52;25.80;;;9.17;;
19869;SDS011;10097;50.862;4.696;2022-11-11T06:48:19;30.13;;;12.07;;
19869;SDS011;10097;50.862;4.696;2022-11-11T06:50:45;23.23;;;11.20;;
19869;SDS011;10097;50.862;4.696;2022-11-11T06:53:15;20.80;;;9.07;;
19869;SDS011;10097;50.862;4.696;2022-11-11T06:55:42;27.77;;;10.80;;
19869;SDS011;10097;50.862;4.696;2022-11-11T07:00:35;25.87;;;11.73;;
19869;SDS011;10097;50.862;4.696;2022-11-11T07:03:05;31.27;;;11.40;;
19869;SDS011;10097;50.862;4.696;2022-11-11T07:05:32;26.90;;;10.83;;
19869;SDS011;10097;50.862;4.696;2022-11-11T07:08:02;27.17;;;12.30;;
19869;SDS011;10097;50.862;4.696;2022-11-11T07:10:32;29.70;;;11.67;;
19869;SDS011;10097;50.862;4.696;2022-11-11T07:12:59;30.73;;;11.67;;
19869;SDS011;10097;50.862;4.696;2022-11-11T07:15:26;29.40;;;11.80;;
19869;SDS011;10097;50.862;4.696;2022-11-11T07:17:52;29.23;;;12.37;;
19869;SDS011;10097;50.862;4.696;2022-11-11T07:20:18;33.03;;;12.00;;
19869;SDS011;10097;50.862;4.696;2022-11-11T07:22:45;26.03;;;11.77;;
19869;SDS011;10097;50.862;4.696;2022-11-11T07:25:10;26.63;;;10.73;;
19869;SDS011;10097;50.862;4.696;2022-11-11T07:27:39;25.30;;;10.87;;
19869;SDS011;10097;50.862;4.696;2022-11-11T07:30:06;26.10;;;10.43;;
19869;SDS011;10097;50.862;4.696;2022-11-11T07:32:32;26.50;;;11.90;;
19869;SDS011;10097;50.862;4.696;2022-11-11T07:34:59;28.73;;;10.57;;
19869;SDS011;10097;50.862;4.696;2022-11-11T07:37:24;25.23;;;10.87;;
19869;SDS011;10097;50.862;4.696;2022-11-11T07:39:50;26.73;;;10.17;;
19869;SDS011;10097;50.862;4.696;2022-11-11T07:42:16;25.10;;;10.23;;
19869;SDS011;10097;50.862;4.696;2022-11-11T07:44:41;23.50;;;9.97;;
19869;SDS011;10097;50.862;4.696;2022-11-11T07:47:07;23.17;;;9.63;;
19869;SDS011;10097;50.862;4.696;2022-11-11T07:49:33;22.03;;;9.73;;
19869;SDS011;10097;50.862;4.696;2022-11-11T07:51:59;20.70;;;9.10;;
19869;SDS011;10097;50.862;4.696;2022-11-11T07:54:24;23.57;;;9.20;;
19869;SDS011;10097;50.862;4.696;2022-11-11T07:56:50;21.70;;;10.00;;
19869;SDS011;10097;50.862;4.696;2022-11-11T07:59:16;18.90;;;8.50;;
19869;SDS011;10097;50.862;4.696;2022-11-11T08:01:41;20.50;;;8.20;;
19869;SDS011;10097;50.862;4.696;2022-11-11T08:04:07;20.73;;;8.33;;
19869;SDS011;10097;50.862;4.696;2022-11-11T08:06:33;19.30;;;8.97;;
19869;SDS011;10097;50.862;4.696;2022-11-11T08:08:58;21.07;;;9.67;;
19869;SDS011;10097;50.862;4.696;2022-11-11T08:11:24;18.73;;;8.47;;
19869;SDS011;10097;50.862;4.696;2022-11-11T08:14:08;18.77;;;7.90;;
19869;SDS011;10097;50.862;4.696;2022-11-11T08:16:34;17.70;;;7.67;;
19869;SDS011;10097;50.862;4.696;2022-11-11T08:19:00;18.37;;;7.43;;
19869;SDS011;10097;50.862;4.696;2022-11-11T08:21:26;21.40;;;7.13;;
19869;SDS011;10097;50.862;4.696;2022-11-11T08:23:52;20.43;;;7.10;;
19869;SDS011;10097;50.862;4.696;2022-11-11T08:26:18;18.03;;;6.67;;
19869;SDS011;10097;50.862;4.696;2022-11-11T08:28:46;14.67;;;7.07;;
19869;SDS011;10097;50.862;4.696;2022-11-11T08:31:12;19.33;;;6.37;;
19869;SDS011;10097;50.862;4.696;2022-11-11T08:33:38;15.63;;;6.57;;
19869;SDS011;10097;50.862;4.696;2022-11-11T08:36:04;13.97;;;6.30;;
19869;SDS011;10097;50.862;4.696;2022-11-11T08:38:31;15.17;;;6.07;;
19869;SDS011;10097;50.862;4.696;2022-11-11T08:41:01;13.40;;;5.43;;
19869;SDS011;10097;50.862;4.696;2022-11-11T08:43:28;12.93;;;5.63;;
19869;SDS011;10097;50.862;4.696;2022-11-11T08:46:01;11.27;;;4.67;;
19869;SDS011;10097;50.862;4.696;2022-11-11T08:48:29;12.37;;;4.93;;
19869;SDS011;10097;50.862;4.696;2022-11-11T08:50:56;14.37;;;5.60;;
19869;SDS011;10097;50.862;4.696;2022-11-11T08:53:22;11.03;;;4.70;;
19869;SDS011;10097;50.862;4.696;2022-11-11T08:55:48;11.17;;;4.60;;
19869;SDS011;10097;50.862;4.696;2022-11-11T08:58:13;13.87;;;4.97;;
19869;SDS011;10097;50.862;4.696;2022-11-11T09:00:39;11.73;;;3.93;;
19869;SDS011;10097;50.862;4.696;2022-11-11T09:03:06;10.03;;;4.20;;
19869;SDS011;10097;50.862;4.696;2022-11-11T09:05:34;9.40;;;4.33;;
19869;SDS011;10097;50.862;4.696;2022-11-11T09:08:02;12.03;;;4.07;;
19869;SDS011;10097;50.862;4.696;2022-11-11T09:10:35;9.70;;;3.57;;
19869;SDS011;10097;50.862;4.696;2022-11-11T09:13:02;8.63;;;3.60;;
19869;SDS011;10097;50.862;4.696;2022-11-11T09:15:28;7.80;;;3.33;;
19869;SDS011;10097;50.862;4.696;2022-11-11T09:17:54;9.23;;;3.50;;
19869;SDS011;10097;50.862;4.696;2022-11-11T09:20:20;8.43;;;3.23;;
19869;SDS011;10097;50.862;4.696;2022-11-11T09:22:46;8.67;;;3.20;;
19869;SDS011;10097;50.862;4.696;2022-11-11T09:25:13;8.60;;;3.20;;
19869;SDS011;10097;50.862;4.696;2022-11-11T09:27:40;8.40;;;3.47;;
19869;SDS011;10097;50.862;4.696;2022-11-11T09:30:06;8.27;;;2.40;;
19869;SDS011;10097;50.862;4.696;2022-11-11T09:32:33;7.30;;;2.93;;
19869;SDS011;10097;50.862;4.696;2022-11-11T09:34:59;6.77;;;2.63;;
19869;SDS011;10097;50.862;4.696;2022-11-11T09:37:25;6.17;;;2.47;;
19869;SDS011;10097;50.862;4.696;2022-11-11T09:39:51;7.10;;;2.00;;
19869;SDS011;10097;50.862;4.696;2022-11-11T09:47:44;5.63;;;1.93;;
19869;SDS011;10097;50.862;4.696;2022-11-11T09:50:27;3.80;;;1.67;;
19869;SDS011;10097;50.862;4.696;2022-11-11T09:52:59;4.40;;;1.60;;
19869;SDS011;10097;50.862;4.696;2022-11-11T09:55:37;4.77;;;2.20;;
19869;SDS011;10097;50.862;4.696;2022-11-11T09:58:17;3.40;;;1.70;;
19869;SDS011;10097;50.862;4.696;2022-11-11T10:00:50;5.37;;;1.97;;
19869;SDS011;10097;50.862;4.696;2022-11-11T10:03:40;4.60;;;1.70;;
19869;SDS011;10097;50.862;4.696;2022-11-11T10:08:51;3.67;;;1.50;;
19869;SDS011;10097;50.862;4.696;2022-11-11T10:11:29;3.87;;;1.80;;
19869;SDS011;10097;50.862;4.696;2022-11-11T10:14:32;4.47;;;1.57;;
19869;SDS011;10097;50.862;4.696;2022-11-11T10:22:36;3.17;;;1.30;;
19869;SDS011;10097;50.862;4.696;2022-11-11T10:27:37;2.10;;;0.80;;
19869;SDS011;10097;50.862;4.696;2022-11-11T10:32:58;2.07;;;1.03;;
19869;SDS011;10097;50.862;4.696;2022-11-11T10:35:27;4.00;;;0.97;;
19869;SDS011;10097;50.862;4.696;2022-11-11T10:40:56;2.73;;;0.83;;
19869;SDS011;10097;50.862;4.696;2022-11-11T10:43:29;5.13;;;1.53;;
19869;SDS011;10097;50.862;4.696;2022-11-11T10:48:25;2.50;;;0.80;;
19869;SDS011;10097;50.862;4.696;2022-11-11T10:51:14;4.00;;;0.93;;
19869;SDS011;10097;50.862;4.696;2022-11-11T10:53:59;5.50;;;1.13;;
19869;SDS011;10097;50.862;4.696;2022-11-11T10:56:35;3.20;;;1.20;;
19869;SDS011;10097;50.862;4.696;2022-11-11T11:04:54;2.60;;;0.93;;
19869;SDS011;10097;50.862;4.696;2022-11-11T11:07:28;4.23;;;0.87;;
19869;SDS011;10097;50.862;4.696;2022-11-11T11:15:41;3.07;;;1.00;;
19869;SDS011;10097;50.862;4.696;2022-11-11T11:18:15;4.17;;;1.00;;
19869;SDS011;10097;50.862;4.696;2022-11-11T11:21:15;5.03;;;1.30;;
19869;SDS011;10097;50.862;4.696;2022-11-11T11:23:44;4.07;;;0.90;;
19869;SDS011;10097;50.862;4.696;2022-11-11T11:26:12;3.97;;;1.00;;
19869;SDS011;10097;50.862;4.696;2022-11-11T11:28:55;5.07;;;0.90;;
19869;SDS011;10097;50.862;4.696;2022-11-11T11:31:33;5.07;;;1.20;;
19869;SDS011;10097;50.862;4.696;2022-11-11T11:34:03;4.13;;;1.17;;
19869;SDS011;10097;50.862;4.696;2022-11-11T11:36:29;4.30;;;1.23;;
19869;SDS011;10097;50.862;4.696;2022-11-11T11:38:55;2.43;;;0.77;;
19869;SDS011;10097;50.862;4.696;2022-11-11T11:41:38;3.20;;;1.13;;
19869;SDS011;10097;50.862;4.696;2022-11-11T11:49:50;5.17;;;1.40;;
19869;SDS011;10097;50.862;4.696;2022-11-11T11:55:30;2.77;;;1.00;;
19869;SDS011;10097;50.862;4.696;2022-11-11T12:00:45;3.43;;;1.10;;
19869;SDS011;10097;50.862;4.696;2022-11-11T12:12:09;4.45;;;1.10;;
19869;SDS011;10097;50.862;4.696;2022-11-11T12:17:32;5.13;;;1.40;;
19869;SDS011;10097;50.862;4.696;2022-11-11T12:25:51;3.67;;;1.20;;
19869;SDS011;10097;50.862;4.696;2022-11-11T12:33:52;5.60;;;1.23;;
19869;SDS011;10097;50.862;4.696;2022-11-11T12:36:41;3.85;;;1.10;;
19869;SDS011;10097;50.862;4.696;2022-11-11T12:42:15;5.57;;;1.15;;
19869;SDS011;10097;50.862;4.696;2022-11-11T12:47:52;2.60;;;1.05;;
19869;SDS011;10097;50.862;4.696;2022-11-11T12:50:25;6.55;;;1.08;;
19869;SDS011;10097;50.862;4.696;2022-11-11T12:58:27;2.97;;;1.00;;
19869;SDS011;10097;50.862;4.696;2022-11-11T13:01:09;4.85;;;1.40;;
19869;SDS011;10097;50.862;4.696;2022-11-11T13:09:59;5.72;;;1.30;;
19869;SDS011;10097;50.862;4.696;2022-11-11T13:12:40;4.70;;;1.80;;
19869;SDS011;10097;50.862;4.696;2022-11-11T13:17:48;6.45;;;1.85;;
19869;SDS011;10097;50.862;4.696;2022-11-11T13:20:20;7.93;;;1.75;;
19869;SDS011;10097;50.862;4.696;2022-11-11T13:23:24;7.60;;;1.50;;
19869;SDS011;10097;50.862;4.696;2022-11-11T13:25:52;4.13;;;1.33;;
19869;SDS011;10097;50.862;4.696;2022-11-11T13:28:47;3.00;;;1.27;;
19869;SDS011;10097;50.862;4.696;2022-11-11T13:31:20;5.13;;;1.50;;
19869;SDS011;10097;50.862;4.696;2022-11-11T13:34:12;5.00;;;1.40;;
19869;SDS011;10097;50.862;4.696;2022-11-11T13:36:41;5.45;;;1.33;;
19869;SDS011;10097;50.862;4.696;2022-11-11T13:39:23;5.43;;;1.70;;
19869;SDS011;10097;50.862;4.696;2022-11-11T13:41:58;7.45;;;2.20;;
19869;SDS011;10097;50.862;4.696;2022-11-11T13:47:11;6.95;;;2.13;;
19869;SDS011;10097;50.862;4.696;2022-11-11T13:49:54;6.18;;;2.08;;
19869;SDS011;10097;50.862;4.696;2022-11-11T13:52:26;4.40;;;1.42;;
19869;SDS011;10097;50.862;4.696;2022-11-11T13:55:02;7.25;;;2.22;;
19869;SDS011;10097;50.862;4.696;2022-11-11T13:57:49;6.00;;;1.77;;
19869;SDS011;10097;50.862;4.696;2022-11-11T14:02:42;6.75;;;2.10;;
19869;SDS011;10097;50.862;4.696;2022-11-11T14:10:08;7.35;;;1.60;;
19869;SDS011;10097;50.862;4.696;2022-11-11T14:12:40;5.88;;;1.55;;
19869;SDS011;10097;50.862;4.696;2022-11-11T14:17:58;5.68;;;1.70;;
19869;SDS011;10097;50.862;4.696;2022-11-11T14:23:20;6.60;;;1.50;;
19869;SDS011;10097;50.862;4.696;2022-11-11T14:25:48;4.05;;;1.50;;
19869;SDS011;10097;50.862;4.696;2022-11-11T14:28:22;5.80;;;1.30;;
19869;SDS011;10097;50.862;4.696;2022-11-11T14:30:52;6.22;;;1.63;;
19869;SDS011;10097;50.862;4.696;2022-11-11T14:54:54;3.72;;;1.15;;
19869;SDS011;10097;50.862;4.696;2022-11-11T14:57:35;5.65;;;1.42;;
19869;SDS011;10097;50.862;4.696;2022-11-11T15:02:45;3.72;;;1.50;;
19869;SDS011;10097;50.862;4.696;2022-11-11T15:05:19;6.63;;;1.67;;
19869;SDS011;10097;50.862;4.696;2022-11-11T15:08:09;2.42;;;1.00;;
19869;SDS011;10097;50.862;4.696;2022-11-11T15:24:16;11.77;;;1.60;;
19869;SDS011;10097;50.862;4.696;2022-11-11T15:26:58;4.47;;;1.37;;
19869;SDS011;10097;50.862;4.696;2022-11-11T15:29:46;6.70;;;2.17;;
19869;SDS011;10097;50.862;4.696;2022-11-11T15:32:23;7.60;;;1.43;;
19869;SDS011;10097;50.862;4.696;2022-11-11T15:37:35;7.03;;;1.50;;
19869;SDS011;10097;50.862;4.696;2022-11-11T15:40:01;4.37;;;1.27;;
19869;SDS011;10097;50.862;4.696;2022-11-11T15:45:20;8.83;;;1.93;;
19869;SDS011;10097;50.862;4.696;2022-11-11T15:47:53;4.80;;;1.40;;
19869;SDS011;10097;50.862;4.696;2022-11-11T15:52:57;8.37;;;1.67;;
19869;SDS011;10097;50.862;4.696;2022-11-11T15:55:28;6.33;;;1.83;;
19869;SDS011;10097;50.862;4.696;2022-11-11T15:58:14;6.37;;;1.90;;
19869;SDS011;10097;50.862;4.696;2022-11-11T16:00:54;4.90;;;1.53;;
19869;SDS011;10097;50.862;4.696;2022-11-11T16:03:32;4.60;;;1.77;;
19869;SDS011;10097;50.862;4.696;2022-11-11T16:06:05;4.17;;;1.50;;
19869;SDS011;10097;50.862;4.696;2022-11-11T16:08:34;7.70;;;2.00;;
19869;SDS011;10097;50.862;4.696;2022-11-11T16:11:00;4.93;;;2.03;;
19869;SDS011;10097;50.862;4.696;2022-11-11T16:13:28;7.47;;;2.13;;
19869;SDS011;10097;50.862;4.696;2022-11-11T16:18:42;6.93;;;2.63;;
19869;SDS011;10097;50.862;4.696;2022-11-11T16:21:20;6.77;;;2.23;;
19869;SDS011;10097;50.862;4.696;2022-11-11T16:23:53;6.70;;;1.90;;
19869;SDS011;10097;50.862;4.696;2022-11-11T16:26:21;6.27;;;2.40;;
19869;SDS011;10097;50.862;4.696;2022-11-11T16:28:50;7.23;;;2.40;;
19869;SDS011;10097;50.862;4.696;2022-11-11T16:33:58;7.40;;;2.77;;
19869;SDS011;10097;50.862;4.696;2022-11-11T16:37:06;9.67;;;3.00;;
19869;SDS011;10097;50.862;4.696;2022-11-11T16:39:34;6.70;;;2.60;;
19869;SDS011;10097;50.862;4.696;2022-11-11T16:42:22;7.17;;;2.37;;
19869;SDS011;10097;50.862;4.696;2022-11-11T16:45:17;8.87;;;3.20;;
19869;SDS011;10097;50.862;4.696;2022-11-11T16:47:47;9.90;;;2.90;;
19869;SDS011;10097;50.862;4.696;2022-11-11T16:50:35;8.97;;;3.60;;
19869;SDS011;10097;50.862;4.696;2022-11-11T16:53:26;10.00;;;3.87;;
19869;SDS011;10097;50.862;4.696;2022-11-11T16:55:57;12.33;;;3.60;;
19869;SDS011;10097;50.862;4.696;2022-11-11T16:58:23;11.23;;;4.37;;
19869;SDS011;10097;50.862;4.696;2022-11-11T17:00:49;11.60;;;3.63;;
19869;SDS011;10097;50.862;4.696;2022-11-11T17:03:27;15.03;;;4.10;;
19869;SDS011;10097;50.862;4.696;2022-11-11T17:05:54;11.90;;;3.53;;
19869;SDS011;10097;50.862;4.696;2022-11-11T17:08:42;10.77;;;3.70;;
19869;SDS011;10097;50.862;4.696;2022-11-11T17:13:53;12.00;;;3.47;;
19869;SDS011;10097;50.862;4.696;2022-11-11T17:16:18;6.43;;;2.80;;
19869;SDS011;10097;50.862;4.696;2022-11-11T17:18:44;9.37;;;2.77;;
19869;SDS011;10097;50.862;4.696;2022-11-11T17:21:10;9.80;;;3.20;;
19869;SDS011;10097;50.862;4.696;2022-11-11T17:23:36;8.27;;;3.50;;
19869;SDS011;10097;50.862;4.696;2022-11-11T17:26:02;6.53;;;2.83;;
19869;SDS011;10097;50.862;4.696;2022-11-11T17:28:32;10.17;;;3.10;;
19869;SDS011;10097;50.862;4.696;2022-11-11T17:31:05;10.67;;;3.27;;
19869;SDS011;10097;50.862;4.696;2022-11-11T17:33:32;10.67;;;3.00;;
19869;SDS011;10097;50.862;4.696;2022-11-11T17:35:58;8.77;;;3.40;;
19869;SDS011;10097;50.862;4.696;2022-11-11T17:38:25;7.10;;;2.83;;
19869;SDS011;10097;50.862;4.696;2022-11-11T17:40:51;8.40;;;3.17;;
19869;SDS011;10097;50.862;4.696;2022-11-11T17:43:17;12.27;;;3.67;;
19869;SDS011;10097;50.862;4.696;2022-11-11T17:45:42;11.20;;;3.30;;
19869;SDS011;10097;50.862;4.696;2022-11-11T17:48:09;11.53;;;3.53;;
19869;SDS011;10097;50.862;4.696;2022-11-11T17:50:36;7.67;;;3.20;;
19869;SDS011;10097;50.862;4.696;2022-11-11T17:53:03;8.63;;;3.40;;
19869;SDS011;10097;50.862;4.696;2022-11-11T17:55:30;14.03;;;4.70;;
19869;SDS011;10097;50.862;4.696;2022-11-11T17:57:57;7.97;;;3.93;;
19869;SDS011;10097;50.862;4.696;2022-11-11T18:00:23;13.67;;;4.50;;
19869;SDS011;10097;50.862;4.696;2022-11-11T18:02:52;15.90;;;5.70;;
19869;SDS011;10097;50.862;4.696;2022-11-11T18:05:18;14.03;;;5.37;;
19869;SDS011;10097;50.862;4.696;2022-11-11T18:07:43;13.43;;;5.17;;